sensor_id;sensor_type;location;lat;lon;timestamp;pressure;altitude;pressure_sealevel;temperature;humidity
59435;BME280;45241;49.768;8.636;2023-10-19T00:01:58;98428.84;;;12.48;100.00
59435;BME280;45241;49.768;8.636;2023-10-19T00:04:26;98426.75;;;12.55;100.00
59435;BME280;45241;49.768;8.636;2023-10-19T00:06:56;98436.09;;;12.47;100.00
59435;BME280;45241;49.768;8.636;2023-10-19T00:09:22;98431.81;;;12.51;100.00
59435;BME280;45241;49.768;8.636;2023-10-19T00:11:47;98430.50;;;12.54;100.00
59435;BME280;45241;49.768;8.636;2023-10-19T00:14:16;98422.44;;;12.71;100.00
59435;BME280;45241;49.768;8.636;2023-10-19T00:16:45;98416.84;;;12.77;100.00
59435;BME280;45241;49.768;8.636;2023-10-19T00:19:19;98415.53;;;12.80;100.00
59435;BME280;45241;49.768;8.636;2023-10-19T00:21:46;98406.47;;;12.86;100.00
59435;BME280;45241;49.768;8.636;2023-10-19T00:24:17;98409.50;;;12.89;100.00
59435;BME280;45241;49.768;8.636;2023-10-19T00:26:43;98412.59;;;12.98;100.00
59435;BME280;45241;49.768;8.636;2023-10-19T00:29:09;98408.53;;;12.96;100.00
59435;BME280;45241;49.768;8.636;2023-10-19T00:32:04;98413.09;;;12.95;100.00
59435;BME280;45241;49.768;8.636;2023-10-19T00:34:31;98406.66;;;12.96;100.00
59435;BME280;45241;49.768;8.636;2023-10-19T00:36:56;98405.63;;;13.02;100.00
59435;BME280;45241;49.768;8.636;2023-10-19T00:39:24;98411.13;;;13.12;100.00
59435;BME280;45241;49.768;8.636;2023-10-19T00:41:50;98400.22;;;13.24;100.00
59435;BME280;45241;49.768;8.636;2023-10-19T00:44:16;98401.09;;;13.30;100.00
59435;BME280;45241;49.768;8.636;2023-10-19T00:46:49;98405.31;;;13.47;100.00
59435;BME280;45241;49.768;8.636;2023-10-19T00:49:33;98403.06;;;13.66;100.00
59435;BME280;45241;49.768;8.636;2023-10-19T00:52:00;98394.56;;;13.79;100.00
59435;BME280;45241;49.768;8.636;2023-10-19T00:54:37;98381.47;;;13.93;100.00
59435;BME280;45241;49.768;8.636;2023-10-19T00:57:17;98376.34;;;13.92;100.00
59435;BME280;45241;49.768;8.636;2023-10-19T00:59:46;98378.34;;;14.06;100.00
59435;BME280;45241;49.768;8.636;2023-10-19T01:02:15;98375.22;;;14.25;100.00
59435;BME280;45241;49.768;8.636;2023-10-19T01:04:55;98373.22;;;14.47;100.00
59435;BME280;45241;49.768;8.636;2023-10-19T01:07:24;98376.53;;;14.59;100.00
59435;BME280;45241;49.768;8.636;2023-10-19T01:09:49;98383.03;;;14.68;100.00
59435;BME280;45241;49.768;8.636;2023-10-19T01:12:19;98371.75;;;14.77;100.00
59435;BME280;45241;49.768;8.636;2023-10-19T01:15:17;98368.50;;;14.75;100.00
59435;BME280;45241;49.768;8.636;2023-10-19T01:17:45;98370.13;;;14.76;100.00
59435;BME280;45241;49.768;8.636;2023-10-19T01:20:19;98366.91;;;14.79;100.00
59435;BME280;45241;49.768;8.636;2023-10-19T01:23:04;98358.81;;;14.79;100.00
59435;BME280;45241;49.768;8.636;2023-10-19T01:28:09;98347.47;;;14.77;100.00
59435;BME280;45241;49.768;8.636;2023-10-19T01:30:36;98343.19;;;14.81;100.00
59435;BME280;45241;49.768;8.636;2023-10-19T01:33:03;98345.06;;;14.85;100.00
59435;BME280;45241;49.768;8.636;2023-10-19T01:35:29;98348.31;;;14.87;100.00
59435;BME280;45241;49.768;8.636;2023-10-19T01:38:14;98351.50;;;14.74;100.00
59435;BME280;45241;49.768;8.636;2023-10-19T01:40:40;98351.25;;;14.76;100.00
59435;BME280;45241;49.768;8.636;2023-10-19T01:43:14;98351.53;;;14.79;100.00
59435;BME280;45241;49.768;8.636;2023-10-19T01:45:51;98351.78;;;14.73;100.00
59435;BME280;45241;49.768;8.636;2023-10-19T01:48:19;98349.13;;;14.88;100.00
59435;BME280;45241;49.768;8.636;2023-10-19T01:50:48;98329.16;;;14.89;100.00
59435;BME280;45241;49.768;8.636;2023-10-19T01:53:16;98340.50;;;14.86;100.00
59435;BME280;45241;49.768;8.636;2023-10-19T01:55:43;98335.09;;;14.86;100.00
59435;BME280;45241;49.768;8.636;2023-10-19T01:58:09;98308.16;;;14.91;100.00
59435;BME280;45241;49.768;8.636;2023-10-19T02:00:35;98310.31;;;14.94;100.00
59435;BME280;45241;49.768;8.636;2023-10-19T02:03:07;98321.94;;;15.05;100.00
59435;BME280;45241;49.768;8.636;2023-10-19T02:05:33;98328.66;;;14.97;100.00
59435;BME280;45241;49.768;8.636;2023-10-19T02:08:06;98324.09;;;15.08;100.00
59435;BME280;45241;49.768;8.636;2023-10-19T02:10:35;98336.25;;;15.05;100.00
59435;BME280;45241;49.768;8.636;2023-10-19T02:13:02;98329.19;;;14.99;100.00
59435;BME280;45241;49.768;8.636;2023-10-19T02:15:33;98315.44;;;15.01;100.00
59435;BME280;45241;49.768;8.636;2023-10-19T02:18:00;98316.50;;;15.00;100.00
59435;BME280;45241;49.768;8.636;2023-10-19T02:20:27;98335.13;;;14.96;100.00
59435;BME280;45241;49.768;8.636;2023-10-19T02:22:53;98317.88;;;14.92;100.00
59435;BME280;45241;49.768;8.636;2023-10-19T02:25:19;98319.75;;;14.91;100.00
59435;BME280;45241;49.768;8.636;2023-10-19T02:27:46;98304.34;;;14.87;100.00
59435;BME280;45241;49.768;8.636;2023-10-19T02:30:12;98307.59;;;14.94;100.00
59435;BME280;45241;49.768;8.636;2023-10-19T02:32:37;98305.22;;;15.08;100.00
59435;BME280;45241;49.768;8.636;2023-10-19T02:35:03;98319.50;;;15.08;100.00
59435;BME280;45241;49.768;8.636;2023-10-19T02:37:29;98302.50;;;15.08;100.00
59435;BME280;45241;49.768;8.636;2023-10-19T02:39:55;98300.34;;;15.15;100.00
59435;BME280;45241;49.768;8.636;2023-10-19T02:42:20;98307.91;;;15.28;100.00
59435;BME280;45241;49.768;8.636;2023-10-19T02:44:47;98295.75;;;15.10;100.00
59435;BME280;45241;49.768;8.636;2023-10-19T02:47:15;98295.50;;;15.22;100.00
59435;BME280;45241;49.768;8.636;2023-10-19T02:49:42;98290.38;;;15.25;100.00
59435;BME280;45241;49.768;8.636;2023-10-19T02:52:09;98283.38;;;15.30;100.00
59435;BME280;45241;49.768;8.636;2023-10-19T02:54:38;98279.84;;;15.29;100.00
59435;BME280;45241;49.768;8.636;2023-10-19T02:57:03;98280.41;;;15.26;100.00
59435;BME280;45241;49.768;8.636;2023-10-19T02:59:32;98271.50;;;15.20;100.00
59435;BME280;45241;49.768;8.636;2023-10-19T03:01:59;98279.59;;;15.20;100.00
59435;BME280;45241;49.768;8.636;2023-10-19T03:04:33;98271.50;;;15.20;100.00
59435;BME280;45241;49.768;8.636;2023-10-19T03:07:02;98279.03;;;15.28;100.00
59435;BME280;45241;49.768;8.636;2023-10-19T03:09:28;98285.53;;;15.33;100.00
59435;BME280;45241;49.768;8.636;2023-10-19T03:11:56;98282.81;;;15.27;100.00
59435;BME280;45241;49.768;8.636;2023-10-19T03:14:38;98283.13;;;15.31;100.00
59435;BME280;45241;49.768;8.636;2023-10-19T03:17:04;98289.59;;;15.35;100.00
59435;BME280;45241;49.768;8.636;2023-10-19T03:19:30;98292.28;;;15.35;100.00
59435;BME280;45241;49.768;8.636;2023-10-19T03:21:55;98293.63;;;15.22;100.00
59435;BME280;45241;49.768;8.636;2023-10-19T03:24:21;98280.13;;;15.22;100.00
59435;BME280;45241;49.768;8.636;2023-10-19T03:27:05;98284.72;;;15.27;100.00
59435;BME280;45241;49.768;8.636;2023-10-19T03:29:38;98286.59;;;15.21;100.00
59435;BME280;45241;49.768;8.636;2023-10-19T03:32:04;98276.88;;;15.15;100.00
59435;BME280;45241;49.768;8.636;2023-10-19T03:34:31;98274.19;;;15.05;100.00
59435;BME280;45241;49.768;8.636;2023-10-19T03:36:57;98270.41;;;15.06;100.00
59435;BME280;45241;49.768;8.636;2023-10-19T03:39:27;98277.97;;;15.04;100.00
59435;BME280;45241;49.768;8.636;2023-10-19T03:41:53;98275.50;;;14.97;100.00
59435;BME280;45241;49.768;8.636;2023-10-19T03:44:18;98271.47;;;14.95;100.00
59435;BME280;45241;49.768;8.636;2023-10-19T03:46:51;98269.28;;;14.82;100.00
59435;BME280;45241;49.768;8.636;2023-10-19T03:49:35;98269.00;;;14.78;100.00
59435;BME280;45241;49.768;8.636;2023-10-19T03:52:04;98255.53;;;14.83;100.00
59435;BME280;45241;49.768;8.636;2023-10-19T03:54:36;98248.22;;;14.84;100.00
59435;BME280;45241;49.768;8.636;2023-10-19T03:57:05;98250.41;;;14.92;100.00
59435;BME280;45241;49.768;8.636;2023-10-19T03:59:51;98236.91;;;14.87;100.00
59435;BME280;45241;49.768;8.636;2023-10-19T04:02:22;98229.34;;;14.84;100.00
59435;BME280;45241;49.768;8.636;2023-10-19T04:04:48;98222.34;;;14.88;100.00
59435;BME280;45241;49.768;8.636;2023-10-19T04:07:18;98240.69;;;14.86;100.00
59435;BME280;45241;49.768;8.636;2023-10-19T04:09:51;98232.84;;;14.84;100.00
59435;BME280;45241;49.768;8.636;2023-10-19T04:12:24;98229.34;;;14.79;100.00
59435;BME280;45241;49.768;8.636;2023-10-19T04:14:50;98231.50;;;14.82;100.00
59435;BME280;45241;49.768;8.636;2023-10-19T04:17:15;98207.78;;;14.94;100.00
59435;BME280;45241;49.768;8.636;2023-10-19T04:19:41;98214.78;;;14.85;100.00
59435;BME280;45241;49.768;8.636;2023-10-19T04:22:06;98216.41;;;14.86;100.00
59435;BME280;45241;49.768;8.636;2023-10-19T04:24:36;98209.66;;;14.88;100.00
59435;BME280;45241;49.768;8.636;2023-10-19T04:27:01;98213.16;;;14.84;100.00
59435;BME280;45241;49.768;8.636;2023-10-19T04:29:26;98206.16;;;14.78;100.00
59435;BME280;45241;49.768;8.636;2023-10-19T04:31:53;98217.19;;;14.76;100.00
59435;BME280;45241;49.768;8.636;2023-10-19T04:34:22;98212.34;;;14.68;100.00
59435;BME280;45241;49.768;8.636;2023-10-19T04:36:50;98215.81;;;14.58;100.00
59435;BME280;45241;49.768;8.636;2023-10-19T04:39:16;98212.03;;;14.59;100.00
59435;BME280;45241;49.768;8.636;2023-10-19T04:41:45;98216.91;;;14.62;100.00
59435;BME280;45241;49.768;8.636;2023-10-19T04:44:10;98214.47;;;14.56;100.00
59435;BME280;45241;49.768;8.636;2023-10-19T04:46:36;98220.91;;;14.50;100.00
59435;BME280;45241;49.768;8.636;2023-10-19T04:49:02;98219.03;;;14.50;100.00
59435;BME280;45241;49.768;8.636;2023-10-19T04:51:29;98223.59;;;14.50;100.00
59435;BME280;45241;49.768;8.636;2023-10-19T04:53:55;98228.19;;;14.39;100.00
59435;BME280;45241;49.768;8.636;2023-10-19T04:56:21;98223.59;;;14.45;100.00
59435;BME280;45241;49.768;8.636;2023-10-19T04:58:46;98220.38;;;14.48;100.00
59435;BME280;45241;49.768;8.636;2023-10-19T05:01:12;98218.19;;;14.40;100.00
59435;BME280;45241;49.768;8.636;2023-10-19T05:03:38;98207.16;;;14.41;100.00
59435;BME280;45241;49.768;8.636;2023-10-19T05:06:04;98213.34;;;14.47;100.00
59435;BME280;45241;49.768;8.636;2023-10-19T05:08:29;98207.66;;;14.38;100.00
59435;BME280;45241;49.768;8.636;2023-10-19T05:10:58;98210.13;;;14.40;100.00
59435;BME280;45241;49.768;8.636;2023-10-19T05:13:24;98205.81;;;14.38;100.00
59435;BME280;45241;49.768;8.636;2023-10-19T05:15:54;98210.66;;;14.42;100.00
59435;BME280;45241;49.768;8.636;2023-10-19T05:18:21;98202.31;;;14.43;100.00
59435;BME280;45241;49.768;8.636;2023-10-19T05:20:47;98210.94;;;14.50;100.00
59435;BME280;45241;49.768;8.636;2023-10-19T05:23:12;98205.56;;;14.55;100.00
59435;BME280;45241;49.768;8.636;2023-10-19T05:25:38;98206.63;;;14.49;100.00
59435;BME280;45241;49.768;8.636;2023-10-19T05:28:05;98207.69;;;14.48;100.00
59435;BME280;45241;49.768;8.636;2023-10-19T05:30:30;98209.03;;;14.41;100.00
59435;BME280;45241;49.768;8.636;2023-10-19T05:32:57;98209.28;;;14.34;100.00
59435;BME280;45241;49.768;8.636;2023-10-19T05:35:23;98196.34;;;14.36;100.00
59435;BME280;45241;49.768;8.636;2023-10-19T05:37:51;98213.28;;;14.26;100.00
59435;BME280;45241;49.768;8.636;2023-10-19T05:40:16;98208.22;;;14.40;100.00
59435;BME280;45241;49.768;8.636;2023-10-19T05:42:43;98206.56;;;14.29;100.00
59435;BME280;45241;49.768;8.636;2023-10-19T05:45:08;98209.31;;;14.39;100.00
59435;BME280;45241;49.768;8.636;2023-10-19T05:47:34;98220.38;;;14.43;100.00
59435;BME280;45241;49.768;8.636;2023-10-19T05:50:00;98211.19;;;14.38;100.00
59435;BME280;45241;49.768;8.636;2023-10-19T05:52:25;98199.34;;;14.45;100.00
59435;BME280;45241;49.768;8.636;2023-10-19T05:54:50;98199.34;;;14.40;100.00
59435;BME280;45241;49.768;8.636;2023-10-19T05:57:15;98200.38;;;14.33;100.00
59435;BME280;45241;49.768;8.636;2023-10-19T05:59:41;98200.66;;;14.32;100.00
59435;BME280;45241;49.768;8.636;2023-10-19T06:02:06;98208.13;;;14.20;100.00
59435;BME280;45241;49.768;8.636;2023-10-19T06:04:33;98210.31;;;14.28;100.00
59435;BME280;45241;49.768;8.636;2023-10-19T06:06:58;98205.50;;;14.30;100.00
59435;BME280;45241;49.768;8.636;2023-10-19T06:09:24;98206.56;;;14.29;100.00
59435;BME280;45241;49.768;8.636;2023-10-19T06:11:55;98211.16;;;14.28;100.00
59435;BME280;45241;49.768;8.636;2023-10-19T06:14:20;98206.84;;;14.32;100.00
59435;BME280;45241;49.768;8.636;2023-10-19T06:16:45;98210.63;;;14.31;100.00
59435;BME280;45241;49.768;8.636;2023-10-19T06:19:11;98209.81;;;14.36;100.00
59435;BME280;45241;49.768;8.636;2023-10-19T06:21:36;98213.88;;;14.38;100.00
59435;BME280;45241;49.768;8.636;2023-10-19T06:24:02;98215.50;;;14.45;100.00
59435;BME280;45241;49.768;8.636;2023-10-19T06:26:28;98218.47;;;14.43;100.00
59435;BME280;45241;49.768;8.636;2023-10-19T06:28:54;98219.03;;;14.50;100.00
59435;BME280;45241;49.768;8.636;2023-10-19T06:31:23;98210.69;;;14.52;100.00
59435;BME280;45241;49.768;8.636;2023-10-19T06:33:50;98214.44;;;14.51;100.00
59435;BME280;45241;49.768;8.636;2023-10-19T06:36:15;98220.41;;;14.63;100.00
59435;BME280;45241;49.768;8.636;2023-10-19T06:38:40;98214.78;;;14.80;100.00
59435;BME280;45241;49.768;8.636;2023-10-19T06:41:13;98222.34;;;14.93;100.00
59435;BME280;45241;49.768;8.636;2023-10-19T06:43:39;98219.63;;;14.88;100.00
59435;BME280;45241;49.768;8.636;2023-10-19T06:46:05;98218.31;;;14.95;100.00
59435;BME280;45241;49.768;8.636;2023-10-19T06:48:31;98221.81;;;15.11;100.00
59435;BME280;45241;49.768;8.636;2023-10-19T06:50:56;98221.28;;;15.09;100.00
59435;BME280;45241;49.768;8.636;2023-10-19T06:53:21;98219.69;;;15.18;100.00
59435;BME280;45241;49.768;8.636;2023-10-19T06:55:47;98215.91;;;15.30;100.00
59435;BME280;45241;49.768;8.636;2023-10-19T06:58:13;98223.44;;;15.33;100.00
59435;BME280;45241;49.768;8.636;2023-10-19T07:00:40;98216.69;;;15.40;100.00
59435;BME280;45241;49.768;8.636;2023-10-19T07:03:08;98221.56;;;15.43;100.00
59435;BME280;45241;49.768;8.636;2023-10-19T07:05:33;98216.13;;;15.48;100.00
59435;BME280;45241;49.768;8.636;2023-10-19T07:07:59;98210.19;;;15.51;100.00
59435;BME280;45241;49.768;8.636;2023-10-19T07:10:27;98217.78;;;15.60;100.00
59435;BME280;45241;49.768;8.636;2023-10-19T07:12:53;98216.41;;;15.62;100.00
59435;BME280;45241;49.768;8.636;2023-10-19T07:15:19;98221.28;;;15.65;100.00
59435;BME280;45241;49.768;8.636;2023-10-19T07:17:46;98213.44;;;15.69;100.00
59435;BME280;45241;49.768;8.636;2023-10-19T07:20:15;98209.66;;;15.70;100.00
59435;BME280;45241;49.768;8.636;2023-10-19T07:22:57;98202.09;;;15.72;100.00
59435;BME280;45241;49.768;8.636;2023-10-19T07:25:25;98206.94;;;15.75;100.00
59435;BME280;45241;49.768;8.636;2023-10-19T07:27:52;98213.69;;;15.77;100.00
59435;BME280;45241;49.768;8.636;2023-10-19T07:30:18;98213.94;;;15.81;100.00
59435;BME280;45241;49.768;8.636;2023-10-19T07:32:50;98210.44;;;15.85;100.00
59435;BME280;45241;49.768;8.636;2023-10-19T07:35:26;98206.91;;;15.90;100.00
59435;BME280;45241;49.768;8.636;2023-10-19T07:37:52;98210.13;;;15.97;100.00
59435;BME280;45241;49.768;8.636;2023-10-19T07:40:18;98202.28;;;16.01;100.00
59435;BME280;45241;49.768;8.636;2023-10-19T07:42:44;98209.25;;;16.07;100.00
59435;BME280;45241;49.768;8.636;2023-10-19T07:45:10;98202.78;;;16.13;100.00
59435;BME280;45241;49.768;8.636;2023-10-19T07:47:40;98207.91;;;16.14;100.00
59435;BME280;45241;49.768;8.636;2023-10-19T07:50:09;98209.22;;;16.22;100.00
59435;BME280;45241;49.768;8.636;2023-10-19T07:52:42;98212.44;;;16.29;100.00
59435;BME280;45241;49.768;8.636;2023-10-19T07:55:09;98214.31;;;16.34;100.00
59435;BME280;45241;49.768;8.636;2023-10-19T07:57:34;98210.78;;;16.38;100.00
59435;BME280;45241;49.768;8.636;2023-10-19T07:59:59;98205.03;;;16.45;100.00
59435;BME280;45241;49.768;8.636;2023-10-19T08:02:25;98204.22;;;16.50;100.00
59435;BME280;45241;49.768;8.636;2023-10-19T08:04:52;98197.19;;;16.49;100.00
59435;BME280;45241;49.768;8.636;2023-10-19T08:07:17;98194.69;;;16.57;100.00
59435;BME280;45241;49.768;8.636;2023-10-19T08:09:43;98191.47;;;16.60;100.00
59435;BME280;45241;49.768;8.636;2023-10-19T08:12:09;98193.31;;;16.65;100.00
59435;BME280;45241;49.768;8.636;2023-10-19T08:14:36;98198.16;;;16.68;100.00
59435;BME280;45241;49.768;8.636;2023-10-19T08:17:02;98207.34;;;16.67;100.00
59435;BME280;45241;49.768;8.636;2023-10-19T08:19:28;98211.44;;;16.69;100.00
59435;BME280;45241;49.768;8.636;2023-10-19T08:21:56;98216.84;;;16.69;100.00
59435;BME280;45241;49.768;8.636;2023-10-19T08:24:22;98205.72;;;16.71;100.00
59435;BME280;45241;49.768;8.636;2023-10-19T08:26:48;98206.28;;;16.68;100.00
59435;BME280;45241;49.768;8.636;2023-10-19T08:29:16;98214.66;;;16.71;100.00
59435;BME280;45241;49.768;8.636;2023-10-19T08:31:44;98203.31;;;16.75;100.00
59435;BME280;45241;49.768;8.636;2023-10-19T08:34:11;98207.34;;;16.77;100.00
59435;BME280;45241;49.768;8.636;2023-10-19T08:36:37;98210.44;;;16.99;100.00
59435;BME280;45241;49.768;8.636;2023-10-19T08:39:07;98204.13;;;17.09;100.00
59435;BME280;45241;49.768;8.636;2023-10-19T08:41:33;98192.31;;;17.29;100.00
59435;BME280;45241;49.768;8.636;2023-10-19T08:44:03;98190.06;;;17.41;100.00
59435;BME280;45241;49.768;8.636;2023-10-19T08:46:29;98188.28;;;17.55;100.00
59435;BME280;45241;49.768;8.636;2023-10-19T08:48:57;98186.56;;;17.65;100.00
59435;BME280;45241;49.768;8.636;2023-10-19T08:51:24;98174.28;;;17.72;100.00
59435;BME280;45241;49.768;8.636;2023-10-19T08:53:53;98172.88;;;17.80;100.00
59435;BME280;45241;49.768;8.636;2023-10-19T08:56:19;98186.19;;;18.00;100.00
59435;BME280;45241;49.768;8.636;2023-10-19T08:58:49;98183.75;;;18.23;100.00
59435;BME280;45241;49.768;8.636;2023-10-19T09:01:14;98186.25;;;18.38;100.00
59435;BME280;45241;49.768;8.636;2023-10-19T09:03:40;98175.28;;;18.48;100.00
59435;BME280;45241;49.768;8.636;2023-10-19T09:06:06;98177.06;;;18.58;100.00
59435;BME280;45241;49.768;8.636;2023-10-19T09:08:31;98175.56;;;18.65;100.00
59435;BME280;45241;49.768;8.636;2023-10-19T09:11:09;98172.56;;;18.67;100.00
59435;BME280;45241;49.768;8.636;2023-10-19T09:16:09;98161.66;;;18.72;100.00
59435;BME280;45241;49.768;8.636;2023-10-19T09:18:35;98158.44;;;18.70;100.00
59435;BME280;45241;49.768;8.636;2023-10-19T09:21:00;98154.22;;;18.77;100.00
59435;BME280;45241;49.768;8.636;2023-10-19T09:23:32;98160.63;;;18.68;100.00
59435;BME280;45241;49.768;8.636;2023-10-19T09:25:59;98156.91;;;18.83;100.00
59435;BME280;45241;49.768;8.636;2023-10-19T09:28:28;98156.16;;;18.96;100.00
59435;BME280;45241;49.768;8.636;2023-10-19T09:30:55;98155.75;;;19.02;100.00
59435;BME280;45241;49.768;8.636;2023-10-19T09:33:24;98150.38;;;19.16;100.00
59435;BME280;45241;49.768;8.636;2023-10-19T09:35:50;98162.78;;;19.22;100.00
59435;BME280;45241;49.768;8.636;2023-10-19T09:38:21;98160.91;;;19.36;100.00
59435;BME280;45241;49.768;8.636;2023-10-19T09:40:48;98149.84;;;19.47;100.00
59435;BME280;45241;49.768;8.636;2023-10-19T09:43:41;98138.06;;;19.37;100.00
59435;BME280;45241;49.768;8.636;2023-10-19T09:46:08;98148.63;;;19.39;100.00
59435;BME280;45241;49.768;8.636;2023-10-19T09:48:39;98140.16;;;19.41;100.00
59435;BME280;45241;49.768;8.636;2023-10-19T09:51:06;98138.84;;;19.38;100.00
59435;BME280;45241;49.768;8.636;2023-10-19T09:53:34;98131.81;;;19.37;100.00
59435;BME280;45241;49.768;8.636;2023-10-19T09:56:01;98135.22;;;19.75;100.00
59435;BME280;45241;49.768;8.636;2023-10-19T09:58:35;98131.88;;;19.92;100.00
59435;BME280;45241;49.768;8.636;2023-10-19T10:01:02;98128.94;;;20.16;100.00
59435;BME280;45241;49.768;8.636;2023-10-19T10:06:29;98126.53;;;20.14;100.00
59435;BME280;45241;49.768;8.636;2023-10-19T10:08:55;98132.94;;;20.18;100.00
59435;BME280;45241;49.768;8.636;2023-10-19T10:11:26;98125.25;;;20.34;100.00
59435;BME280;45241;49.768;8.636;2023-10-19T10:13:52;98136.03;;;20.39;100.00
59435;BME280;45241;49.768;8.636;2023-10-19T10:16:28;98129.91;;;20.34;100.00
59435;BME280;45241;49.768;8.636;2023-10-19T10:18:56;98132.44;;;20.30;100.00
59435;BME280;45241;49.768;8.636;2023-10-19T10:21:25;98128.66;;;20.53;100.00
59435;BME280;45241;49.768;8.636;2023-10-19T10:23:56;98130.09;;;20.37;100.00
59435;BME280;45241;49.768;8.636;2023-10-19T10:26:24;98133.16;;;20.58;100.00
59435;BME280;45241;49.768;8.636;2023-10-19T10:29:12;98129.00;;;20.61;100.00
59435;BME280;45241;49.768;8.636;2023-10-19T10:31:49;98122.25;;;20.72;100.00
59435;BME280;45241;49.768;8.636;2023-10-19T10:37:05;98115.19;;;20.71;100.00
59435;BME280;45241;49.768;8.636;2023-10-19T10:39:33;98117.59;;;20.72;100.00
59435;BME280;45241;49.768;8.636;2023-10-19T10:42:04;98111.25;;;20.41;100.00
59435;BME280;45241;49.768;8.636;2023-10-19T10:47:21;98120.13;;;20.33;100.00
59435;BME280;45241;49.768;8.636;2023-10-19T10:52:33;98132.06;;;19.95;100.00
59435;BME280;45241;49.768;8.636;2023-10-19T10:55:13;98123.09;;;19.81;100.00
59435;BME280;45241;49.768;8.636;2023-10-19T10:57:40;98121.91;;;19.74;100.00
59435;BME280;45241;49.768;8.636;2023-10-19T11:02:40;98114.56;;;19.74;100.00
59435;BME280;45241;49.768;8.636;2023-10-19T11:05:12;98106.06;;;19.62;100.00
59435;BME280;45241;49.768;8.636;2023-10-19T11:07:41;98106.28;;;19.65;100.00
59435;BME280;45241;49.768;8.636;2023-10-19T11:10:27;98101.22;;;19.59;100.00
59435;BME280;45241;49.768;8.636;2023-10-19T11:13:02;98101.75;;;19.61;100.00
59435;BME280;45241;49.768;8.636;2023-10-19T11:15:28;98100.66;;;19.62;100.00
59435;BME280;45241;49.768;8.636;2023-10-19T11:17:53;98096.31;;;19.61;100.00
59435;BME280;45241;49.768;8.636;2023-10-19T11:20:23;98096.41;;;19.56;100.00
59435;BME280;45241;49.768;8.636;2023-10-19T11:22:51;98092.56;;;19.57;100.00
59435;BME280;45241;49.768;8.636;2023-10-19T11:25:23;98102.63;;;19.56;100.00
59435;BME280;45241;49.768;8.636;2023-10-19T11:27:49;98105.66;;;19.55;100.00
59435;BME280;45241;49.768;8.636;2023-10-19T11:30:23;98096.22;;;19.52;100.00
59435;BME280;45241;49.768;8.636;2023-10-19T11:32:48;98096.22;;;19.52;100.00
59435;BME280;45241;49.768;8.636;2023-10-19T11:35:18;98096.09;;;19.44;100.00
59435;BME280;45241;49.768;8.636;2023-10-19T11:37:51;98100.41;;;19.45;100.00
59435;BME280;45241;49.768;8.636;2023-10-19T11:40:18;98092.50;;;19.48;100.00
59435;BME280;45241;49.768;8.636;2023-10-19T11:42:44;98092.69;;;19.52;100.00
59435;BME280;45241;49.768;8.636;2023-10-19T11:45:10;98086.25;;;19.48;100.00
59435;BME280;45241;49.768;8.636;2023-10-19T11:47:37;98084.63;;;19.47;100.00
59435;BME280;45241;49.768;8.636;2023-10-19T11:50:02;98077.28;;;19.47;100.00
59435;BME280;45241;49.768;8.636;2023-10-19T11:52:28;98078.09;;;19.48;100.00
59435;BME280;45241;49.768;8.636;2023-10-19T11:54:54;98077.50;;;19.51;100.00
59435;BME280;45241;49.768;8.636;2023-10-19T11:57:20;98077.00;;;19.49;100.00
59435;BME280;45241;49.768;8.636;2023-10-19T11:59:45;98079.09;;;19.52;100.00
59435;BME280;45241;49.768;8.636;2023-10-19T12:02:10;98079.69;;;19.49;100.00
59435;BME280;45241;49.768;8.636;2023-10-19T12:04:36;98074.03;;;19.45;100.00
59435;BME280;45241;49.768;8.636;2023-10-19T12:07:02;98066.50;;;19.42;100.00
59435;BME280;45241;49.768;8.636;2023-10-19T12:09:28;98058.66;;;19.41;100.00
59435;BME280;45241;49.768;8.636;2023-10-19T12:11:55;98051.63;;;19.26;100.00
59435;BME280;45241;49.768;8.636;2023-10-19T12:14:21;98057.34;;;19.24;100.00
59435;BME280;45241;49.768;8.636;2023-10-19T12:16:47;98051.50;;;19.17;100.00
59435;BME280;45241;49.768;8.636;2023-10-19T12:19:12;98049.28;;;19.19;100.00
59435;BME280;45241;49.768;8.636;2023-10-19T12:21:39;98052.22;;;19.23;100.00
59435;BME280;45241;49.768;8.636;2023-10-19T12:24:07;98049.28;;;19.19;100.00
59435;BME280;45241;49.768;8.636;2023-10-19T12:26:33;98049.28;;;19.19;100.00
59435;BME280;45241;49.768;8.636;2023-10-19T12:28:58;98044.06;;;19.09;100.00
59435;BME280;45241;49.768;8.636;2023-10-19T12:31:24;98049.50;;;19.09;100.00
59435;BME280;45241;49.768;8.636;2023-10-19T12:33:50;98034.06;;;19.04;100.00
59435;BME280;45241;49.768;8.636;2023-10-19T12:36:16;98046.44;;;18.97;100.00
59435;BME280;45241;49.768;8.636;2023-10-19T12:38:53;98042.63;;;18.98;100.00
59435;BME280;45241;49.768;8.636;2023-10-19T12:41:20;98042.44;;;18.94;100.00
59435;BME280;45241;49.768;8.636;2023-10-19T12:43:46;98040.78;;;18.93;100.00
59435;BME280;45241;49.768;8.636;2023-10-19T12:46:12;98030.94;;;18.84;100.00
59435;BME280;45241;49.768;8.636;2023-10-19T12:48:39;98042.94;;;18.77;100.00
59435;BME280;45241;49.768;8.636;2023-10-19T12:51:05;98038.56;;;18.82;100.00
59435;BME280;45241;49.768;8.636;2023-10-19T12:53:34;98040.38;;;18.86;100.00
59435;BME280;45241;49.768;8.636;2023-10-19T12:56:00;98044.50;;;18.65;100.00
59435;BME280;45241;49.768;8.636;2023-10-19T12:58:25;98039.81;;;18.70;100.00
59435;BME280;45241;49.768;8.636;2023-10-19T13:00:53;98042.53;;;18.70;100.00
59435;BME280;45241;49.768;8.636;2023-10-19T13:03:19;98045.75;;;18.72;100.00
59435;BME280;45241;49.768;8.636;2023-10-19T13:05:45;98043.81;;;18.59;100.00
59435;BME280;45241;49.768;8.636;2023-10-19T13:08:14;98039.69;;;18.62;100.00
59435;BME280;45241;49.768;8.636;2023-10-19T13:10:40;98042.19;;;18.58;100.00
59435;BME280;45241;49.768;8.636;2023-10-19T13:13:08;98034.81;;;18.45;100.00
59435;BME280;45241;49.768;8.636;2023-10-19T13:15:37;98029.63;;;18.62;100.00